Spring Park, Minnesota
Current Conditions -  °F | °C
As of 3:53 AM on Saturday 20 Dec 2014 (Local Time) from KFCM Reporting Station
Haze Haze  
Wind Chill: 22°   Ceiling: 1000
Heat Index: 30°   Visibility: 5mi
Dew Point: 26°   Wind: 9mph
Humidity: 85%   Direction: 160°SSE
Pressure: 30.14"   Gusts: NA
Location:  44.94°N, 93.63°W
Report Text: KFCM 200953Z AUTO 16008KT 5SM BR BKN010 OVC024 M01/M03 A3014 RMK AO2 SLP219 T10111033
Loading
Personal Weather Stations






























Interactive Weather Map New forecast layout! Learn more

10-Day Weather Forecast

Advertisements
Track Severe Weather on mobile